createdAt,value
2018-02-02T00:00:01.794Z,87.33
2018-02-02T00:01:01.703Z,87.22
2018-02-02T00:02:01.722Z,87.08
2018-02-02T00:03:02.632Z,86.89
2018-02-02T00:04:05.726Z,86.94
2018-02-02T00:05:05.594Z,87.02
2018-02-02T00:06:05.651Z,86.86
2018-02-02T00:07:05.655Z,86.78
2018-02-02T00:08:05.638Z,86.94
2018-02-02T00:09:05.646Z,87.1
2018-02-02T00:10:05.762Z,87.08
2018-02-02T00:11:05.721Z,86.99
2018-02-02T00:12:05.669Z,86.96
2018-02-02T00:13:05.652Z,86.86
2018-02-02T00:14:05.659Z,86.87
2018-02-02T00:15:05.721Z,87.05
2018-02-02T00:16:05.654Z,86.92
2018-02-02T00:17:06.449Z,86.75
2018-02-02T00:18:05.715Z,86.93
2018-02-02T00:19:05.727Z,87.22
2018-02-02T00:20:05.650Z,86.95
2018-02-02T00:21:05.922Z,87.02
2018-02-02T00:22:05.825Z,86.84
2018-02-02T00:23:05.687Z,87.22
2018-02-02T00:24:05.742Z,87.32
2018-02-02T00:25:05.694Z,87.35
2018-02-02T00:26:06.001Z,87.39
2018-02-02T00:27:05.781Z,87.34
2018-02-02T00:28:05.655Z,87.33
2018-02-02T00:29:05.762Z,87.36
2018-02-02T00:30:05.751Z,87.57
2018-02-02T00:31:05.765Z,87.48
2018-02-02T00:32:05.794Z,87.68
2018-02-02T00:33:05.850Z,87.91
2018-02-02T00:34:07.740Z,88.32
2018-02-02T00:35:07.752Z,88.27
2018-02-02T00:36:07.680Z,88.36
2018-02-02T00:37:07.763Z,88.45
2018-02-02T00:38:07.826Z,88.34
2018-02-02T00:39:07.947Z,88.69
2018-02-02T00:40:07.683Z,88.77
2018-02-02T00:41:07.708Z,88.58
2018-02-02T00:42:07.736Z,88.71
2018-02-02T00:43:07.878Z,88.79
2018-02-02T00:44:07.678Z,88.98
2018-02-02T00:45:07.674Z,88.51
2018-02-02T00:46:07.772Z,88.95
2018-02-02T00:47:07.814Z,88.96
2018-02-02T00:48:07.800Z,88.62
2018-02-02T00:49:07.826Z,88.5
2018-02-02T00:50:07.918Z,88.56
2018-02-02T00:51:07.659Z,88.32
2018-02-02T00:52:07.808Z,88.44
2018-02-02T00:53:07.775Z,88.29
2018-02-02T00:54:07.949Z,88.63
2018-02-02T00:55:07.696Z,88.45
2018-02-02T00:56:07.705Z,88.51
2018-02-02T00:57:07.804Z,88.28
2018-02-02T00:58:07.888Z,88.45
2018-02-02T00:59:07.820Z,88.44
2018-02-02T01:00:07.840Z,88.4
2018-02-02T01:01:07.692Z,88.53
2018-02-02T01:02:07.906Z,88.83
2018-02-02T01:03:08.314Z,89.09
2018-02-02T01:04:06.264Z,89.06
2018-02-02T01:05:06.373Z,88.8
2018-02-02T01:06:06.273Z,88.88
2018-02-02T01:07:06.264Z,88.96
2018-02-02T01:08:06.243Z,89.08
2018-02-02T01:09:06.163Z,88.89
2018-02-02T01:10:06.092Z,88.94
2018-02-02T01:11:06.451Z,88.84
2018-02-02T01:12:06.142Z,88.82
2018-02-02T01:13:06.095Z,88.86
2018-02-02T01:14:06.193Z,89.23
2018-02-02T01:15:06.125Z,89.17
2018-02-02T01:16:06.245Z,89.04
2018-02-02T01:17:06.544Z,89.17
2018-02-02T01:18:06.107Z,89.01
2018-02-02T01:19:06.300Z,89.02
2018-02-02T01:20:06.290Z,88.96
2018-02-02T01:21:06.266Z,88.83
2018-02-02T01:22:06.209Z,89.09
2018-02-02T01:23:06.151Z,88.94
2018-02-02T01:24:06.190Z,88.91
2018-02-02T01:25:06.171Z,88.72
2018-02-02T01:26:06.305Z,88.83
2018-02-02T01:27:06.321Z,88.91
2018-02-02T01:28:06.279Z,88.92
2018-02-02T01:29:06.419Z,88.94
2018-02-02T01:30:07.196Z,89
2018-02-02T01:31:06.222Z,88.89
2018-02-02T01:32:06.285Z,88.93
2018-02-02T01:33:06.250Z,88.94
2018-02-02T01:34:06.298Z,88.94
2018-02-02T01:36:01.483Z,89.11
2018-02-02T01:37:01.373Z,88.87
2018-02-02T01:38:01.225Z,88.85
2018-02-02T01:39:01.440Z,88.59
2018-02-02T01:40:01.842Z,88.56
2018-02-02T01:41:01.366Z,88.62
2018-02-02T01:42:01.423Z,88.62
2018-02-02T01:43:01.339Z,88.9
2018-02-02T01:44:01.297Z,88.65
2018-02-02T01:45:01.379Z,88.85
2018-02-02T01:46:01.315Z,88.74
2018-02-02T01:47:01.322Z,88.65
2018-02-02T01:48:01.636Z,88.56
2018-02-02T01:49:01.192Z,88.51
2018-02-02T01:50:01.397Z,88.69
2018-02-02T01:51:01.369Z,88.55
2018-02-02T01:52:01.435Z,88.77
2018-02-02T01:53:01.285Z,88.46
2018-02-02T01:54:01.403Z,88.38
2018-02-02T01:55:01.318Z,88.44
2018-02-02T01:56:01.366Z,88.37
2018-02-02T01:57:01.324Z,88.51
2018-02-02T01:58:01.382Z,88.49
2018-02-02T01:59:01.320Z,88.61
2018-02-02T02:00:01.317Z,88.64
2018-02-02T02:01:01.345Z,88.6
2018-02-02T02:02:01.390Z,88.77
2018-02-02T02:03:01.509Z,88.56
2018-02-02T02:04:01.291Z,88.49
2018-02-02T02:05:01.213Z,88.53
2018-02-02T02:05:58.284Z,88.54
2018-02-02T02:06:58.299Z,88.54
2018-02-02T02:07:58.412Z,88.56
2018-02-02T02:08:58.949Z,88.46
2018-02-02T02:09:58.333Z,88.57
2018-02-02T02:10:58.269Z,88.53
2018-02-02T02:11:58.222Z,88.57
2018-02-02T02:12:58.160Z,88.46
2018-02-02T02:13:58.308Z,88.62
2018-02-02T02:14:58.581Z,88.74
2018-02-02T02:15:58.302Z,88.7
2018-02-02T02:16:58.176Z,88.6
2018-02-02T02:17:58.384Z,88.61
2018-02-02T02:18:58.437Z,88.6
2018-02-02T02:19:58.421Z,88.42
2018-02-02T02:20:58.185Z,88.55
2018-02-02T02:21:58.364Z,88.34
2018-02-02T02:22:58.175Z,88.24
2018-02-02T02:23:58.275Z,88.42
2018-02-02T02:24:58.430Z,88.37
2018-02-02T02:25:58.245Z,88.27
2018-02-02T02:26:58.252Z,88.17
2018-02-02T02:27:58.284Z,88.08
2018-02-02T02:28:58.187Z,88.02
2018-02-02T02:29:58.389Z,87.94
2018-02-02T02:30:58.192Z,88.16
2018-02-02T02:31:58.279Z,88.12
2018-02-02T02:32:58.271Z,88.03
2018-02-02T02:33:58.222Z,88.36
2018-02-02T02:34:58.278Z,88.13
2018-02-02T02:35:58.435Z,88.12
2018-02-02T02:37:00.434Z,88.14
2018-02-02T02:38:00.243Z,88.4
2018-02-02T02:39:00.370Z,88.11
2018-02-02T02:40:00.366Z,88.26
2018-02-02T02:41:00.317Z,88.15
2018-02-02T02:42:00.428Z,88.17
2018-02-02T02:43:00.295Z,87.77
2018-02-02T02:44:00.274Z,87.7
2018-02-02T02:45:00.383Z,87.56
2018-02-02T02:46:00.419Z,87.6
2018-02-02T02:47:00.378Z,87.44
2018-02-02T02:48:00.275Z,87.35
2018-02-02T02:49:00.531Z,87.43
2018-02-02T02:50:00.376Z,87.43
2018-02-02T02:51:00.339Z,87.41
2018-02-02T02:52:00.308Z,87.41
2018-02-02T02:53:00.259Z,87.56
2018-02-02T02:54:00.338Z,87.21
2018-02-02T02:55:00.456Z,87.33
2018-02-02T02:56:00.420Z,87.39
2018-02-02T02:57:00.422Z,87.6
2018-02-02T02:58:00.512Z,87.43
2018-02-02T02:59:00.421Z,87.58
2018-02-02T03:00:00.487Z,87.55
2018-02-02T03:01:00.251Z,87.63
2018-02-02T03:02:00.998Z,87.55
2018-02-02T03:03:00.420Z,87.51
2018-02-02T03:04:00.409Z,87.46
2018-02-02T03:05:00.414Z,87.52
2018-02-02T03:06:00.377Z,87.75
2018-02-02T03:06:05.369Z,87.74
2018-02-02T03:07:05.386Z,87.68
2018-02-02T03:08:05.395Z,87.53
2018-02-02T03:09:05.510Z,87.65
2018-02-02T03:10:05.289Z,87.38
2018-02-02T03:11:05.287Z,87.15
2018-02-02T03:12:05.487Z,87.26
2018-02-02T03:13:05.510Z,87.26
2018-02-02T03:14:05.486Z,87.32
2018-02-02T03:15:05.287Z,87.26
2018-02-02T03:16:05.426Z,87.13
2018-02-02T03:17:05.514Z,87.03
2018-02-02T03:18:05.308Z,87.09
2018-02-02T03:19:05.316Z,86.99
2018-02-02T03:20:05.344Z,87.03
2018-02-02T03:21:05.306Z,87.08
2018-02-02T03:22:05.304Z,86.9
2018-02-02T03:23:05.354Z,86.91
2018-02-02T03:24:05.330Z,86.72
2018-02-02T03:25:05.367Z,86.99
2018-02-02T03:26:05.331Z,86.89
2018-02-02T03:27:05.301Z,86.99
2018-02-02T03:28:05.262Z,86.8
2018-02-02T03:29:05.418Z,86.59
2018-02-02T03:30:05.457Z,86.64
2018-02-02T03:31:05.483Z,86.77
2018-02-02T03:32:05.392Z,86.87
2018-02-02T03:33:05.348Z,86.83
2018-02-02T03:34:05.551Z,87.04
2018-02-02T03:35:05.327Z,87.21
2018-02-02T03:36:05.421Z,87.1
2018-02-02T03:37:08.357Z,87.19
2018-02-02T03:38:08.494Z,87.19
2018-02-02T03:39:08.614Z,87.01
2018-02-02T03:40:08.489Z,86.98
2018-02-02T03:41:08.460Z,87.15
2018-02-02T03:42:08.421Z,87.22
2018-02-02T03:43:08.363Z,87.17
2018-02-02T03:44:08.331Z,87.21
2018-02-02T03:45:08.570Z,87.14
2018-02-02T03:46:08.449Z,87.25
2018-02-02T03:47:08.565Z,87.27
2018-02-02T03:48:08.452Z,87.25
2018-02-02T03:49:08.474Z,87.22
2018-02-02T03:50:08.241Z,87.19
2018-02-02T03:51:08.449Z,87.17
2018-02-02T03:52:08.342Z,87.23
2018-02-02T03:53:08.365Z,86.99
2018-02-02T03:54:08.472Z,86.95
2018-02-02T03:55:08.332Z,87.1
2018-02-02T03:56:08.339Z,86.99
2018-02-02T03:57:08.412Z,87.1
2018-02-02T03:58:08.303Z,86.95
2018-02-02T03:59:08.559Z,87.14
2018-02-02T04:00:08.407Z,87.01
2018-02-02T04:01:08.463Z,87.14
2018-02-02T04:02:08.460Z,87.18
2018-02-02T04:03:08.339Z,87.08
2018-02-02T04:04:08.511Z,87.14
2018-02-02T04:05:08.468Z,87.21
2018-02-02T04:06:08.551Z,87.12
2018-02-02T04:07:06.501Z,87.3
2018-02-02T04:08:06.478Z,87.27
2018-02-02T04:09:06.649Z,87.09
2018-02-02T04:10:06.555Z,86.96
2018-02-02T04:11:06.512Z,87.05
2018-02-02T04:12:06.622Z,87.01
2018-02-02T04:13:06.582Z,86.83
2018-02-02T04:14:06.663Z,86.86
2018-02-02T04:15:06.721Z,86.91
2018-02-02T04:16:06.567Z,86.59
2018-02-02T04:17:06.527Z,86.86
2018-02-02T04:18:06.529Z,86.87
2018-02-02T04:19:06.646Z,87
2018-02-02T04:20:06.600Z,87.05
2018-02-02T04:21:06.528Z,87.09
2018-02-02T04:22:06.560Z,87.2
2018-02-02T04:23:06.585Z,87.1
2018-02-02T04:24:06.501Z,87.1
2018-02-02T04:25:06.547Z,87.12
2018-02-02T04:26:06.448Z,87.1
2018-02-02T04:27:06.596Z,86.99
2018-02-02T04:28:06.541Z,87.01
2018-02-02T04:29:06.444Z,87.1
2018-02-02T04:30:06.462Z,87.16
2018-02-02T04:31:06.541Z,86.89
2018-02-02T04:32:06.475Z,86.88
2018-02-02T04:33:06.559Z,86.9
2018-02-02T04:34:06.566Z,86.85
2018-02-02T04:35:06.592Z,87.03
2018-02-02T04:36:06.647Z,87.13
2018-02-02T04:37:06.502Z,87.18
2018-02-02T04:39:01.921Z,87.31
2018-02-02T04:40:01.486Z,87.37
2018-02-02T04:41:01.588Z,87.22
2018-02-02T04:42:01.727Z,87.17
2018-02-02T04:43:01.629Z,87.32
2018-02-02T04:44:01.641Z,87.37
2018-02-02T04:45:01.722Z,87.47
2018-02-02T04:46:01.769Z,87.3
2018-02-02T04:47:01.724Z,87.35
2018-02-02T04:48:01.640Z,87.43
2018-02-02T04:49:01.531Z,87.34
2018-02-02T04:50:01.581Z,87.27
2018-02-02T04:51:01.681Z,87.29
2018-02-02T04:52:01.588Z,87.23
2018-02-02T04:53:01.601Z,87.27
2018-02-02T04:54:01.597Z,87.24
2018-02-02T04:55:01.628Z,87.35
2018-02-02T04:56:01.613Z,87.57
2018-02-02T04:57:01.764Z,87.52
2018-02-02T04:58:01.698Z,87.57
2018-02-02T04:59:01.644Z,87.48
2018-02-02T05:00:01.541Z,87.39
2018-02-02T05:01:01.711Z,87.5
2018-02-02T05:02:01.603Z,87.46
2018-02-02T05:03:01.549Z,87.61
2018-02-02T05:04:01.722Z,87.58
2018-02-02T05:05:01.612Z,87.7
2018-02-02T05:06:01.761Z,87.65
2018-02-02T05:07:01.587Z,87.57
2018-02-02T05:08:01.811Z,87.62
2018-02-02T05:08:58.748Z,87.66
2018-02-02T05:09:58.678Z,88.09
2018-02-02T05:10:58.506Z,88.13
2018-02-02T05:11:58.629Z,88.18
2018-02-02T05:12:58.672Z,88.24
2018-02-02T05:13:58.607Z,88.27
2018-02-02T05:14:58.723Z,88.21
2018-02-02T05:15:58.734Z,88.33
2018-02-02T05:16:58.595Z,88.2
2018-02-02T05:17:58.744Z,88.19
2018-02-02T05:18:58.612Z,88.26
2018-02-02T05:19:58.704Z,88.32
2018-02-02T05:20:58.600Z,88.38
2018-02-02T05:21:58.916Z,88.4
2018-02-02T05:22:58.596Z,88.22
2018-02-02T05:23:58.672Z,88.34
2018-02-02T05:24:58.622Z,88.55
2018-02-02T05:25:58.670Z,88.33
2018-02-02T05:26:58.645Z,88.29
2018-02-02T05:27:58.642Z,88.26
2018-02-02T05:28:58.795Z,88.2
2018-02-02T05:29:58.768Z,88.17
2018-02-02T05:30:58.723Z,88.49
2018-02-02T05:31:58.770Z,88.4
2018-02-02T05:32:58.685Z,88.33
2018-02-02T05:33:58.715Z,88.25
2018-02-02T05:34:58.600Z,88.41
2018-02-02T05:35:58.544Z,88.36
2018-02-02T05:36:58.488Z,88.32
2018-02-02T05:37:58.533Z,88.36
2018-02-02T05:38:58.614Z,88.46
2018-02-02T05:40:00.648Z,88.48
2018-02-02T05:41:00.792Z,88.53
2018-02-02T05:42:00.665Z,88.73
2018-02-02T05:43:00.564Z,88.56
2018-02-02T05:44:00.621Z,88.4
2018-02-02T05:45:00.727Z,88.43
2018-02-02T05:46:00.539Z,88.38
2018-02-02T05:47:00.655Z,88.24
2018-02-02T05:48:00.646Z,88.4
2018-02-02T05:49:00.607Z,88.82
2018-02-02T05:50:00.641Z,88.65
2018-02-02T05:51:00.653Z,88.44
2018-02-02T05:52:00.658Z,88.55
2018-02-02T05:53:00.586Z,88.58
2018-02-02T05:54:00.670Z,88.63
2018-02-02T05:55:00.592Z,88.55
2018-02-02T05:56:00.623Z,88.12
2018-02-02T05:57:00.642Z,88.62
2018-02-02T05:58:00.665Z,88.47
2018-02-02T05:59:00.583Z,88.56
2018-02-02T06:00:00.689Z,88.55
2018-02-02T06:01:00.690Z,88.5
2018-02-02T06:02:00.642Z,88.53
2018-02-02T06:03:00.831Z,88.43
2018-02-02T06:04:00.672Z,88.53
2018-02-02T06:05:00.807Z,88.6
2018-02-02T06:06:00.707Z,88.53
2018-02-02T06:07:00.609Z,88.76
2018-02-02T06:08:00.660Z,88.69
2018-02-02T06:09:00.704Z,88.78
2018-02-02T06:09:05.666Z,88.79
2018-02-02T06:10:05.726Z,88.78
2018-02-02T06:11:05.653Z,88.53
2018-02-02T06:12:05.609Z,88.8
2018-02-02T06:13:05.639Z,89.04
2018-02-02T06:14:05.672Z,89.08
2018-02-02T06:15:05.699Z,89.17
2018-02-02T06:16:06.461Z,88.97
2018-02-02T06:17:05.542Z,89.04
2018-02-02T06:18:06.298Z,90.04
2018-02-02T06:19:05.720Z,89.1
2018-02-02T06:20:05.772Z,88.73
2018-02-02T06:21:05.672Z,88.89
2018-02-02T06:22:06.767Z,88.95
2018-02-02T06:23:08.771Z,88.76
2018-02-02T06:24:05.594Z,89.41
2018-02-02T06:25:06.264Z,89.23
2018-02-02T06:26:05.571Z,89.19
2018-02-02T06:27:05.661Z,88.95
2018-02-02T06:28:05.710Z,88.88
2018-02-02T06:29:05.686Z,88.87
2018-02-02T06:30:05.992Z,88.95
2018-02-02T06:31:05.699Z,88.87
2018-02-02T06:32:05.717Z,89.01
2018-02-02T06:33:05.715Z,88.9
2018-02-02T06:34:05.677Z,89.22
2018-02-02T06:35:05.715Z,89.2
2018-02-02T06:36:05.692Z,89.26
2018-02-02T06:37:05.628Z,89.3
2018-02-02T06:38:06.003Z,89.49
2018-02-02T06:39:05.819Z,89.47
2018-02-02T06:40:08.843Z,89.71
2018-02-02T06:41:08.874Z,89.75
2018-02-02T06:42:08.782Z,89.62
2018-02-02T06:43:08.755Z,89.32
2018-02-02T06:44:08.978Z,89.67
2018-02-02T06:45:08.799Z,89.63
2018-02-02T06:46:08.763Z,89.59
2018-02-02T06:47:08.858Z,89.62
2018-02-02T06:48:08.725Z,89.84
2018-02-02T06:49:09.314Z,89.69
2018-02-02T06:50:08.813Z,89.66
2018-02-02T06:51:08.714Z,89.46
2018-02-02T06:52:08.714Z,89.45
2018-02-02T06:53:08.695Z,89.32
2018-02-02T06:54:08.762Z,89.72
2018-02-02T06:55:08.772Z,89.29
2018-02-02T06:56:08.807Z,89.74
2018-02-02T06:57:08.745Z,89.63
2018-02-02T06:58:08.762Z,89.64
2018-02-02T06:59:08.873Z,89.42
2018-02-02T07:00:08.797Z,89.48
2018-02-02T07:01:08.986Z,89.47
2018-02-02T07:02:08.743Z,89.61
2018-02-02T07:03:08.701Z,89.62
2018-02-02T07:04:08.836Z,89.5
2018-02-02T07:05:08.636Z,89.41
2018-02-02T07:06:08.711Z,89.54
2018-02-02T07:07:08.810Z,89.7
2018-02-02T07:08:08.676Z,89.45
2018-02-02T07:09:08.788Z,89.46
2018-02-02T07:10:06.823Z,89.44
2018-02-02T07:11:06.810Z,89.92
2018-02-02T07:12:06.728Z,89.55
2018-02-02T07:13:06.755Z,89.83
2018-02-02T07:14:06.783Z,89.72
2018-02-02T07:15:06.720Z,89.92
2018-02-02T07:16:07.694Z,89.6
2018-02-02T07:17:06.760Z,89.86
2018-02-02T07:18:06.750Z,89.65
2018-02-02T07:19:06.797Z,89.68
2018-02-02T07:20:06.776Z,89.98
2018-02-02T07:21:06.765Z,89.76
2018-02-02T07:22:06.813Z,89.67
2018-02-02T07:23:06.884Z,89.74
2018-02-02T07:24:06.739Z,89.91
2018-02-02T07:25:06.744Z,90.01
2018-02-02T07:26:06.753Z,89.9
2018-02-02T07:27:06.726Z,89.64
2018-02-02T07:28:06.787Z,89.61
2018-02-02T07:29:06.796Z,89.62
2018-02-02T07:30:06.862Z,89.52
2018-02-02T07:31:06.930Z,89.58
2018-02-02T07:32:06.852Z,89.57
2018-02-02T07:33:06.752Z,89.67
2018-02-02T07:34:07.093Z,89.34
2018-02-02T07:35:06.678Z,89.6
2018-02-02T07:36:06.708Z,89.49
2018-02-02T07:37:06.750Z,89.44
2018-02-02T07:38:06.711Z,89.27
2018-02-02T07:39:07.309Z,89.47
2018-02-02T07:40:06.833Z,89.41
2018-02-02T07:42:00.931Z,89.21
2018-02-02T07:43:00.930Z,89.19
2018-02-02T07:44:00.944Z,89.13
2018-02-02T07:45:00.992Z,89.07
2018-02-02T07:46:01.069Z,88.87
2018-02-02T07:47:01.085Z,89
2018-02-02T07:48:00.918Z,89.09
2018-02-02T07:49:00.937Z,88.92
2018-02-02T07:50:00.982Z,88.84
2018-02-02T07:51:00.923Z,88.61
2018-02-02T07:52:01.114Z,88.49
2018-02-02T07:53:00.995Z,88.56
2018-02-02T07:54:00.871Z,88.8
2018-02-02T07:55:00.991Z,88.7
2018-02-02T07:56:00.871Z,88.68
2018-02-02T07:57:00.845Z,88.53
2018-02-02T07:58:00.938Z,88.33
2018-02-02T07:59:00.978Z,88.36
2018-02-02T08:00:00.891Z,88.33
2018-02-02T08:01:00.895Z,88.3
2018-02-02T08:02:00.821Z,88.01
2018-02-02T08:03:01.037Z,88.06
2018-02-02T08:04:00.892Z,87.9
2018-02-02T08:05:00.864Z,87.39
2018-02-02T08:06:00.924Z,87.54
2018-02-02T08:07:00.958Z,87.73
2018-02-02T08:08:01.018Z,87.57
2018-02-02T08:09:01.022Z,87.74
2018-02-02T08:10:00.922Z,87.19
2018-02-02T08:11:01.191Z,87.32
2018-02-02T08:11:56.977Z,87.04
2018-02-02T08:12:56.986Z,86.92
2018-02-02T08:13:56.951Z,86.83
2018-02-02T08:14:56.947Z,86.7
2018-02-02T08:15:56.978Z,86.93
2018-02-02T08:16:57.003Z,87.01
2018-02-02T08:17:56.988Z,86.95
2018-02-02T08:18:57.030Z,86.79
2018-02-02T08:19:56.921Z,86.75
2018-02-02T08:20:57.000Z,86.66
2018-02-02T08:21:56.885Z,86.96
2018-02-02T08:22:56.993Z,86.88
2018-02-02T08:23:56.886Z,86.68
2018-02-02T08:24:56.913Z,86.57
2018-02-02T08:25:56.912Z,86.15
2018-02-02T08:26:57.083Z,86.29
2018-02-02T08:27:56.967Z,86.24
2018-02-02T08:28:56.949Z,86.32
2018-02-02T08:29:57.013Z,86.38
2018-02-02T08:30:56.948Z,86.25
2018-02-02T08:31:56.996Z,86.18
2018-02-02T08:32:56.976Z,86.14
2018-02-02T08:33:57.058Z,86.36
2018-02-02T08:36:07.453Z,86.19
2018-02-02T08:36:57.040Z,86.22
2018-02-02T08:37:56.912Z,86.28
2018-02-02T08:38:57.102Z,86.09
2018-02-02T08:39:56.970Z,85.77
2018-02-02T08:40:57.128Z,85.8
2018-02-02T08:41:57.135Z,85.83
2018-02-02T08:42:59.080Z,85.74
2018-02-02T08:43:58.974Z,85.74
2018-02-02T08:44:59.065Z,85.76
2018-02-02T08:45:58.979Z,85.69
2018-02-02T08:46:59.054Z,85.74
2018-02-02T08:47:59.153Z,85.91
2018-02-02T08:48:58.990Z,85.97
2018-02-02T08:49:59.075Z,86.05
2018-02-02T08:50:59.080Z,86.1
2018-02-02T08:51:59.124Z,86.06
2018-02-02T08:52:59.107Z,86.03
2018-02-02T08:53:59.105Z,85.64
2018-02-02T08:54:59.042Z,85.7
2018-02-02T08:55:59.025Z,85.56
2018-02-02T08:56:59.084Z,85.55
2018-02-02T08:57:59.095Z,85.57
2018-02-02T08:58:58.986Z,85.48
2018-02-02T08:59:59.056Z,85.65
2018-02-02T09:00:59.127Z,85.39
2018-02-02T09:01:59.058Z,85.46
2018-02-02T09:02:59.050Z,85.56
2018-02-02T09:03:59.027Z,85.51
2018-02-02T09:04:59.033Z,85.57
2018-02-02T09:05:59.978Z,85.58
2018-02-02T09:06:59.044Z,85.31
2018-02-02T09:07:58.978Z,85.23
2018-02-02T09:08:58.976Z,85.25
2018-02-02T09:09:58.980Z,85.17
2018-02-02T09:10:59.371Z,85.25
2018-02-02T09:11:59.211Z,85.4
2018-02-02T09:12:06.146Z,85.44
2018-02-02T09:13:06.269Z,85.58
2018-02-02T09:14:06.364Z,85.43
2018-02-02T09:15:06.654Z,85.23
2018-02-02T09:16:06.380Z,85.13
2018-02-02T09:17:06.008Z,85.23
2018-02-02T09:18:06.514Z,84.79
2018-02-02T09:19:06.136Z,85.01
2018-02-02T09:20:06.197Z,84.89
2018-02-02T09:21:06.184Z,84.99
2018-02-02T09:22:05.824Z,85.17
2018-02-02T09:23:05.737Z,85.1
2018-02-02T09:24:06.342Z,85.29
2018-02-02T09:25:06.241Z,85.15
2018-02-02T09:26:06.401Z,85.13
2018-02-02T09:27:06.099Z,85.27
2018-02-02T09:28:06.287Z,85.35
2018-02-02T09:29:06.227Z,85.42
2018-02-02T09:30:06.259Z,85.35
2018-02-02T09:31:05.843Z,85.42
2018-02-02T09:32:06.356Z,85.4
2018-02-02T09:33:06.114Z,85.15
2018-02-02T09:34:06.278Z,85.33
2018-02-02T09:35:06.099Z,85.34
2018-02-02T09:36:06.196Z,85.19
2018-02-02T09:37:06.248Z,85.33
2018-02-02T09:38:06.048Z,85.43
2018-02-02T09:39:06.632Z,85.22
2018-02-02T09:40:05.658Z,85.24
2018-02-02T09:41:06.069Z,85.42
2018-02-02T09:42:06.230Z,85.47
2018-02-02T09:43:09.259Z,85.45
2018-02-02T09:44:09.175Z,85.39
2018-02-02T09:45:09.226Z,85.21
2018-02-02T09:46:09.191Z,85.38
2018-02-02T09:47:09.154Z,85.52
2018-02-02T09:48:09.244Z,85.58
2018-02-02T09:49:09.234Z,85.66
2018-02-02T09:50:09.265Z,85.75
2018-02-02T09:51:09.099Z,85.81
2018-02-02T09:52:09.115Z,85.89
2018-02-02T09:53:09.239Z,85.58
2018-02-02T09:54:09.143Z,85.48
2018-02-02T09:55:09.214Z,85.62
2018-02-02T09:56:09.231Z,85.71
2018-02-02T09:57:09.164Z,85.73
2018-02-02T09:58:09.197Z,85.49
2018-02-02T09:59:09.208Z,85.51
2018-02-02T10:00:09.465Z,85.47
2018-02-02T10:01:09.982Z,85.35
2018-02-02T10:02:09.171Z,85.42
2018-02-02T10:03:09.189Z,85.55
2018-02-02T10:04:09.195Z,85.45
2018-02-02T10:05:09.168Z,85.55
2018-02-02T10:06:09.336Z,85.6
2018-02-02T10:07:09.274Z,85.53
2018-02-02T10:08:09.121Z,85.62
2018-02-02T10:09:09.803Z,85.9
2018-02-02T10:10:09.164Z,85.8
2018-02-02T10:11:09.143Z,85.77
2018-02-02T10:12:09.460Z,85.57
2018-02-02T10:13:08.695Z,85.6
2018-02-02T10:14:07.371Z,85.79
2018-02-02T10:15:08.124Z,85.37
2018-02-02T10:16:07.365Z,85.38
2018-02-02T10:17:07.877Z,85.5
2018-02-02T10:18:07.390Z,85.44
2018-02-02T10:19:07.546Z,85.63
2018-02-02T10:20:07.392Z,85.62
2018-02-02T10:21:07.374Z,85.61
2018-02-02T10:22:07.847Z,85.85
2018-02-02T10:23:07.413Z,85.42
2018-02-02T10:24:07.384Z,85.66
2018-02-02T10:25:07.678Z,85.83
2018-02-02T10:26:08.163Z,85.36
2018-02-02T10:27:07.371Z,85.44
2018-02-02T10:28:07.349Z,85.47
2018-02-02T10:29:07.439Z,85.56
2018-02-02T10:30:07.563Z,85.58
2018-02-02T10:31:09.783Z,85.69
2018-02-02T10:32:07.443Z,85.72
2018-02-02T10:33:07.488Z,85.64
2018-02-02T10:34:07.710Z,85.62
2018-02-02T10:35:07.466Z,85.53
2018-02-02T10:36:07.472Z,85.6
2018-02-02T10:37:07.344Z,85.46
2018-02-02T10:38:07.443Z,85.26
2018-02-02T10:39:08.551Z,85.49
2018-02-02T10:40:07.937Z,85.71
2018-02-02T10:41:07.975Z,85.63
2018-02-02T10:42:07.360Z,85.59
2018-02-02T10:43:07.490Z,85.74
2018-02-02T10:45:03.079Z,85.64
2018-02-02T10:46:01.651Z,85.57
2018-02-02T10:47:01.575Z,85.46
2018-02-02T10:48:01.639Z,85.7
2018-02-02T10:49:01.796Z,85.55
2018-02-02T10:50:01.605Z,85.56
2018-02-02T10:51:02.107Z,85.46
2018-02-02T10:52:01.536Z,85.46
2018-02-02T10:53:02.084Z,85.55
2018-02-02T10:54:02.408Z,85.56
2018-02-02T10:55:02.772Z,85.63
2018-02-02T10:56:01.512Z,85.89
2018-02-02T10:57:01.506Z,85.91
2018-02-02T10:58:01.633Z,86.08
2018-02-02T10:59:01.469Z,85.97
2018-02-02T11:00:01.484Z,85.65
2018-02-02T11:01:01.411Z,85.53
2018-02-02T11:02:01.464Z,85.66
2018-02-02T11:03:01.543Z,85.68
2018-02-02T11:04:01.564Z,85.93
2018-02-02T11:05:01.524Z,85.97
2018-02-02T11:06:01.582Z,86.01
2018-02-02T11:07:01.589Z,85.78
2018-02-02T11:08:01.654Z,85.79
2018-02-02T11:09:01.505Z,85.96
2018-02-02T11:10:01.608Z,85.87
2018-02-02T11:11:01.505Z,85.9
2018-02-02T11:12:01.656Z,86.06
2018-02-02T11:13:01.649Z,86.16
2018-02-02T11:14:01.703Z,86.05
2018-02-02T11:14:57.564Z,85.77
2018-02-02T11:15:57.657Z,85.95
2018-02-02T11:16:57.657Z,86.01
2018-02-02T11:17:57.559Z,85.82
2018-02-02T11:18:57.454Z,85.93
2018-02-02T11:19:57.566Z,85.92
2018-02-02T11:20:57.446Z,86.03
2018-02-02T11:21:57.551Z,85.86
2018-02-02T11:22:57.533Z,86.09
2018-02-02T11:23:57.590Z,85.92
2018-02-02T11:24:57.635Z,85.73
2018-02-02T11:25:57.550Z,86.03
2018-02-02T11:26:57.479Z,86.16
2018-02-02T11:27:57.573Z,86.13
2018-02-02T11:28:57.491Z,86.29
2018-02-02T11:29:57.529Z,86.06
2018-02-02T11:30:57.466Z,85.72
2018-02-02T11:31:57.556Z,85.68
2018-02-02T11:32:57.458Z,85.92
2018-02-02T11:33:57.466Z,85.71
2018-02-02T11:34:57.462Z,85.76
2018-02-02T11:35:57.486Z,85.7
2018-02-02T11:36:57.538Z,85.31
2018-02-02T11:37:57.614Z,85.38
2018-02-02T11:38:57.953Z,85.09
2018-02-02T11:39:57.598Z,85.21
2018-02-02T11:40:57.567Z,85.35
2018-02-02T11:41:57.443Z,85.12
2018-02-02T11:42:57.479Z,85.21
2018-02-02T11:43:57.730Z,85.24
2018-02-02T11:44:57.601Z,85.38
2018-02-02T11:47:59.515Z,84.99
2018-02-02T11:48:59.701Z,84.88
2018-02-02T11:49:59.563Z,84.93
2018-02-02T11:50:59.730Z,85.04
2018-02-02T11:51:59.553Z,84.6
2018-02-02T11:52:59.538Z,84.82
2018-02-02T11:53:59.593Z,84.89
2018-02-02T11:54:59.576Z,84.71
2018-02-02T11:55:59.661Z,84.64
2018-02-02T11:56:59.533Z,84.78
2018-02-02T11:57:59.600Z,84.89
2018-02-02T11:58:59.659Z,84.75
2018-02-02T11:59:59.506Z,85.04
2018-02-02T12:00:59.500Z,84.91
2018-02-02T12:01:59.544Z,85.02
2018-02-02T12:02:59.568Z,85.01
2018-02-02T12:03:59.574Z,85.18
2018-02-02T12:04:59.506Z,85.05
2018-02-02T12:05:59.601Z,84.63
2018-02-02T12:06:59.502Z,84.94
2018-02-02T12:07:59.622Z,85.05
2018-02-02T12:08:59.592Z,85.08
2018-02-02T12:09:59.590Z,85.24
2018-02-02T12:10:59.563Z,85.39
2018-02-02T12:11:59.796Z,85.2
2018-02-02T12:12:59.586Z,85.12
2018-02-02T12:13:59.594Z,85.12
2018-02-02T12:14:59.632Z,84.99
2018-02-02T12:15:05.706Z,84.99
2018-02-02T12:16:05.728Z,84.69
2018-02-02T12:17:05.667Z,84.64
2018-02-02T12:18:05.659Z,84.4
2018-02-02T12:19:05.779Z,84.49
2018-02-02T12:20:05.611Z,84.65
2018-02-02T12:21:05.660Z,84.63
2018-02-02T12:22:05.652Z,84.81
2018-02-02T12:23:05.561Z,84.97
2018-02-02T12:24:05.704Z,85.12
2018-02-02T12:25:05.653Z,85.09
2018-02-02T12:26:05.900Z,85.04
2018-02-02T12:27:05.672Z,84.87
2018-02-02T12:28:05.637Z,84.29
2018-02-02T12:29:05.764Z,84.1
2018-02-02T12:30:05.671Z,83.98
2018-02-02T12:31:05.743Z,84.18
2018-02-02T12:32:05.647Z,84.19
2018-02-02T12:33:05.625Z,84.04
2018-02-02T12:34:05.659Z,84.36
2018-02-02T12:35:05.681Z,84.44
2018-02-02T12:36:05.762Z,84.43
2018-02-02T12:37:05.781Z,84.2
2018-02-02T12:38:05.667Z,84.09
2018-02-02T12:39:05.782Z,84.42
2018-02-02T12:40:05.676Z,84.16
2018-02-02T12:41:05.787Z,84.21
2018-02-02T12:42:05.760Z,84.45
2018-02-02T12:43:05.710Z,84.7
2018-02-02T12:44:05.590Z,84.26
2018-02-02T12:45:05.875Z,84
2018-02-02T12:46:09.788Z,84.12
2018-02-02T12:47:09.770Z,84.07
2018-02-02T12:48:09.708Z,83.99
2018-02-02T12:49:09.781Z,84.16
2018-02-02T12:50:09.733Z,84.07
2018-02-02T12:51:09.640Z,84.17
2018-02-02T12:52:09.845Z,84.29
2018-02-02T12:53:09.850Z,84.34
2018-02-02T12:54:09.609Z,84.31
2018-02-02T12:55:09.630Z,84.29
2018-02-02T12:56:09.830Z,84.43
2018-02-02T12:57:09.804Z,84.2
2018-02-02T12:58:09.887Z,84.2